Cool Ridge, West Virginia
Current Conditions -  °F | °C
As of 4:08 PM on Tuesday 21 Oct 2014 (Local Time) from KBKW Reporting Station
Broken Clouds Broken Clouds  
Wind Chill: 41°   Ceiling: 2000
Heat Index: 47°   Visibility: 10mi
Dew Point: 41°   Wind: 15mph
Humidity: 80%   Direction: 310°NW
Pressure: 29.96"   Gusts: NA
Location:  37.66°N, 81.1°W
Report Text: KBKW 212008Z AUTO 31013KT 10SM BKN020 BKN045 08/05 A2996 RMK AO2 T00830050 TSNO
Loading
Personal Weather Stations






























Interactive Weather Map
Tropical Storm Tracking
New forecast layout! Learn more

10-Day Weather Forecast

Advertisements
Track Severe Weather on mobile